Time;durP1;ratioP1;P1;durP2;ratioP2;P2;SDS_P1;SDS_P2;PMS_P1;PMS_P2;Temp;Humidity;BMP_temperature;BMP_pressure;BME280_temperature;BME280_humidity;BME280_pressure;Samples;Min_cycle;Max_cycle;Signal;HPM_P1;HPM_P2
2024/02/09 00:00:12;;;;;;;;;;;;;;;;;;;;;
2024/02/09 00:03:22;;;;;;;;;17.25;14.25;;;;;9.75;61.26;100636.22;146607;624;46042;-69
2024/02/09 00:06:17;;;;;;;;;21.25;16.75;;;;;9.75;62.33;100636.22;146613;699;46010;-68
2024/02/09 00:09:31;;;;;;;;;21.00;17.75;;;;;9.69;59.53;100629.94;146609;636;46039;-68
2024/02/09 00:12:41;;;;;;;;;17.75;15.00;;;;;9.68;61.22;100628.13;146614;607;47010;-68
2024/02/09 00:15:34;;;;;;;;;16.25;15.75;;;;;9.67;61.51;100634.13;146605;575;47012;-69
2024/02/09 00:18:34;;;;;;;;;19.50;18.25;;;;;9.65;61.58;100629.66;146611;569;47010;-68
2024/02/09 00:21:30;;;;;;;;;21.00;20.00;;;;;9.58;62.01;100618.09;146610;693;46017;-68
2024/02/09 00:24:43;;;;;;;;;22.75;19.75;;;;;9.60;59.97;100618.19;146609;608;46031;-66
2024/02/09 00:27:36;;;;;;;;;18.25;17.50;;;;;9.63;61.70;100626.13;146608;600;47012;-70
2024/02/09 00:30:37;;;;;;;;;26.75;21.00;;;;;9.63;62.62;100626.13;146615;626;45021;-70
2024/02/09 00:33:29;;;;;;;;;130.00;113.00;;;;;9.58;62.37;100625.88;146615;574;46016;-70
2024/02/09 00:36:24;;;;;;;;;28.75;25.50;;;;;9.55;62.59;100633.47;146617;573;46010;-70
2024/02/09 00:39:18;;;;;;;;;33.75;29.00;;;;;9.48;63.06;100633.97;146612;585;46014;-70
2024/02/09 00:42:13;;;;;;;;;72.75;61.50;;;;;9.46;62.55;100633.84;146611;579;46020;-71
2024/02/09 00:45:11;;;;;;;;;27.50;21.25;;;;;9.45;62.99;100639.84;146607;584;48012;-70
2024/02/09 00:48:23;;;;;;;;;23.00;20.75;;;;;9.40;63.13;100625.75;146614;570;47020;-69
2024/02/09 00:51:20;;;;;;;;;39.75;33.75;;;;;9.36;62.69;100620.34;146607;627;48013;-70
2024/02/09 00:54:17;;;;;;;;;56.00;45.25;;;;;9.37;62.64;100629.87;146612;593;47010;-68
2024/02/09 00:57:15;;;;;;;;;49.25;38.00;;;;;9.39;62.47;100628.28;146611;625;46014;-71
2024/02/09 01:00:31;;;;;;;;;32.50;29.75;;;;;9.39;62.18;100634.34;146616;636;46010;-71
2024/02/09 01:03:26;;;;;;;;;22.75;21.25;;;;;9.34;62.55;100634.91;146609;604;46016;-72
2024/02/09 01:06:31;;;;;;;;;37.25;31.25;;;;;9.25;61.86;100640.44;146611;603;47010;-71
2024/02/09 01:09:24;;;;;;;;;26.50;25.00;;;;;9.17;63.48;100632.28;146611;600;46014;-71
2024/02/09 02:45:42;;;;;;;;;13.25;12.00;;;;;8.52;64.94;100595.84;146624;563;46012;-69
2024/02/09 03:04:44;;;;;;;;;11.00;9.75;;;;;8.76;63.89;100601.53;146616;565;46031;-67
2024/02/09 03:07:39;;;;;;;;;15.75;10.50;;;;;8.75;64.51;100595.47;146620;610;46018;-69
2024/02/09 03:10:43;;;;;;;;;12.25;10.75;;;;;8.78;63.89;100603.41;146607;612;47016;-69
2024/02/09 03:13:42;;;;;;;;;9.25;9.00;;;;;8.76;64.23;100606.72;146611;597;46021;-69
2024/02/09 03:16:48;;;;;;;;;10.00;7.75;;;;;8.71;64.24;100608.12;146618;602;46012;-68
2024/02/09 03:19:40;;;;;;;;;12.25;10.75;;;;;8.69;64.78;100607.13;146620;625;47010;-69
2024/02/09 03:22:35;;;;;;;;;10.25;10.00;;;;;8.63;65.13;100611.97;146609;590;46016;-68
2024/02/09 03:25:29;;;;;;;;;17.25;14.75;;;;;8.54;65.03;100609.75;146611;581;47010;-69
2024/02/09 03:28:27;;;;;;;;;15.50;13.00;;;;;8.46;64.97;100611.00;146611;665;46016;-69
2024/02/09 03:31:19;;;;;;;;;22.25;19.50;;;;;8.40;65.50;100608.94;146614;569;46010;-71
2024/02/09 03:34:18;;;;;;;;;18.75;16.50;;;;;8.32;65.62;100605.03;146612;596;46016;-71
2024/02/09 03:37:16;;;;;;;;;9.50;8.75;;;;;8.26;65.83;100602.06;146615;603;46020;-69
2024/02/09 03:40:32;;;;;;;;;11.75;9.00;;;;;7.07;64.54;100407.50;146620;569;46016;-69
2024/02/09 03:43:36;;;;;;;;;13.25;9.75;;;;;8.19;66.13;100612.84;146619;572;46023;-67
2024/02/09 03:46:32;;;;;;;;;9.00;6.25;;;;;8.17;66.45;100601.53;146618;649;46012;-67
2024/02/09 03:49:25;;;;;;;;;11.25;8.00;;;;;8.18;66.53;100598.16;146621;579;46020;-70
2024/02/09 03:52:24;;;;;;;;;13.75;13.25;;;;;8.24;66.19;100601.97;146615;586;46016;-69
2024/02/09 03:55:22;;;;;;;;;24.25;19.25;;;;;8.29;65.79;100600.56;146614;608;46020;-71
2024/02/09 03:58:17;;;;;;;;;9.25;9.25;;;;;8.37;66.06;100602.69;146611;565;47013;-70
2024/02/09 04:01:19;;;;;;;;;9.25;8.25;;;;;8.40;65.04;100595.16;146625;628;45020;-69
2024/02/09 04:04:14;;;;;;;;;8.75;8.00;;;;;8.44;65.17;100600.59;146613;565;47017;-70
2024/02/09 04:07:08;;;;;;;;;14.00;12.25;;;;;8.44;65.15;100589.34;146617;629;46020;-71
2024/02/09 04:10:04;;;;;;;;;12.50;11.50;;;;;8.45;65.11;100604.06;146610;581;46914;-71
2024/02/09 04:12:58;;;;;;;;;15.25;13.00;;;;;8.42;64.77;100607.34;146608;599;46021;-70
2024/02/09 04:15:54;;;;;;;;;19.00;15.50;;;;;8.42;64.35;100606.47;146610;587;47012;-70
2024/02/09 04:18:49;;;;;;;;;10.25;8.50;;;;;8.44;65.47;100605.75;146615;572;46010;-69
2024/02/09 04:21:47;;;;;;;;;10.25;8.75;;;;;8.39;65.51;100604.59;146618;564;46016;-68
2024/02/09 04:24:56;;;;;;;;;12.00;9.00;;;;;8.33;66.30;100605.09;146622;587;46010;-67
2024/02/09 04:28:00;;;;;;;;;13.50;11.50;;;;;8.24;66.08;100614.88;146610;565;47012;-69
2024/02/09 04:31:08;;;;;;;;;;;;;;;;;;;;;
2024/02/09 04:34:13;;;;;;;;;26.00;23.50;;;;;8.18;66.53;100616.22;146610;575;46913;-70
2024/02/09 04:37:20;;;;;;;;;27.25;23.00;;;;;8.16;65.09;100622.97;146615;626;46012;-68
2024/02/09 04:40:19;;;;;;;;;22.25;19.00;;;;;8.13;66.32;100625.38;146610;649;46012;-68
2024/02/09 04:43:18;;;;;;;;;17.50;16.25;;;;;8.14;66.27;100634.94;146607;585;46010;-68
2024/02/09 04:46:11;;;;;;;;;15.75;14.75;;;;;8.12;66.25;100637.41;146607;602;47012;-69
2024/02/09 04:49:20;;;;;;;;;15.25;13.00;;;;;8.08;67.72;100646.66;146612;658;46030;-68
2024/02/09 04:52:27;;;;;;;;;9.50;6.50;;;;;8.05;67.15;100645.59;146610;594;47012;-70
2024/02/09 04:55:24;;;;;;;;;17.25;15.75;;;;;8.05;67.25;100645.59;146619;569;46020;-67
2024/02/09 04:58:20;;;;;;;;;16.75;15.00;;;;;8.10;67.18;100651.94;146609;583;47012;-70
2024/02/09 05:01:17;;;;;;;;;17.75;15.50;;;;;7.10;66.48;100477.28;146613;653;47010;-68
2024/02/09 05:04:20;;;;;;;;;14.50;13.25;;;;;8.15;66.73;100663.41;146611;588;46016;-68
2024/02/09 05:07:25;;;;;;;;;16.75;14.50;;;;;8.21;65.67;100674.13;146608;716;47010;-68
2024/02/09 05:10:43;;;;;;;;;16.25;14.75;;;;;8.22;66.90;100675.88;146609;624;46017;-69
2024/02/09 05:13:37;;;;;;;;;16.00;14.25;;;;;8.19;67.28;100673.12;146604;578;47020;-70
2024/02/09 05:16:31;;;;;;;;;12.00;12.00;;;;;8.17;66.28;100679.91;146609;744;46016;-69
2024/02/09 05:19:23;;;;;;;;;14.25;13.00;;;;;8.19;66.66;100683.44;146609;579;46020;-70
2024/02/09 05:22:21;;;;;;;;;10.00;8.50;;;;;8.22;66.69;100681.06;146612;595;46016;-68
2024/02/09 05:25:13;;;;;;;;;13.75;11.25;;;;;8.22;66.07;100677.59;146621;608;46013;-69
2024/02/09 05:28:10;;;;;;;;;11.75;10.75;;;;;8.24;66.73;100691.50;146606;611;47017;-67
2024/02/09 05:31:12;;;;;;;;;11.75;10.25;;;;;8.23;67.08;100679.38;146613;598;47050;-69
2024/02/09 05:34:05;;;;;;;;;12.75;11.75;;;;;8.21;66.13;100693.91;146611;565;46016;-69
2024/02/09 05:37:00;;;;;;;;;9.75;8.50;;;;;8.19;66.17;100693.78;146612;563;46020;-70
2024/02/09 05:39:52;;;;;;;;;13.75;10.25;;;;;8.21;65.78;100699.94;146613;558;47016;-67
2024/02/09 05:42:44;;;;;;;;;12.75;12.50;;;;;8.18;66.21;100698.88;146607;631;46021;-67
2024/02/09 05:45:48;;;;;;;;;13.00;11.00;;;;;8.14;66.60;100699.50;146609;591;47014;-69
2024/02/09 05:48:47;;;;;;;;;12.50;10.25;;;;;8.12;66.21;100704.56;146610;569;47021;-70
2024/02/09 05:51:39;;;;;;;;;16.50;15.00;;;;;8.14;67.18;100708.13;146606;584;46012;-68
2024/02/09 05:54:42;;;;;;;;;17.75;16.00;;;;;8.16;66.45;100697.87;146613;569;46020;-69
2024/02/09 05:57:37;;;;;;;;;15.50;14.75;;;;;8.22;66.55;100709.47;146610;608;47012;-68
2024/02/09 06:00:35;;;;;;;;;14.50;14.25;;;;;8.28;66.45;100712.41;146614;679;46012;-68
2024/02/09 06:03:29;;;;;;;;;17.75;15.75;;;;;8.31;67.04;100717.78;146610;733;46017;-68
2024/02/09 06:06:40;;;;;;;;;16.50;15.00;;;;;8.59;67.31;100737.53;146612;569;47010;-69
2024/02/09 06:09:42;;;;;;;;;21.00;16.50;;;;;9.61;66.30;100732.19;146610;571;46012;-67
2024/02/09 06:12:50;;;;;;;;;17.25;15.00;;;;;10.74;64.42;100744.19;146604;582;47010;-70
2024/02/09 06:15:51;;;;;;;;;17.75;14.00;;;;;11.96;60.73;100755.37;146608;610;47012;-70
2024/02/09 06:18:45;;;;;;;;;24.50;20.50;;;;;12.93;55.44;100734.47;146612;583;46021;-69
2024/02/09 06:21:47;;;;;;;;;20.75;16.50;;;;;13.82;55.90;100748.47;146610;599;46916;-71
2024/02/09 06:24:54;;;;;;;;;17.75;15.25;;;;;14.63;51.08;100745.41;146611;587;47010;-71
2024/02/09 06:27:47;;;;;;;;;17.00;16.25;;;;;15.27;49.51;100751.03;146607;577;46016;-71
2024/02/09 06:30:52;;;;;;;;;22.00;19.00;;;;;15.79;48.98;100753.56;146613;587;46010;-70
2024/02/09 06:33:50;;;;;;;;;41.50;32.25;;;;;16.22;47.37;100752.25;146611;639;47016;-70
2024/02/09 06:36:59;;;;;;;;;19.75;18.25;;;;;16.81;47.60;100757.38;146611;600;46010;-69
2024/02/09 06:40:04;;;;;;;;;20.75;19.00;;;;;17.38;45.69;100764.06;146603;608;46016;-69
2024/02/09 06:43:03;;;;;;;;;29.50;27.25;;;;;17.97;44.59;100762.84;146605;564;46020;-70
2024/02/09 06:46:02;;;;;;;;;32.75;28.75;;;;;18.55;45.16;100765.78;146609;592;46912;-67
2024/02/09 06:49:00;;;;;;;;;18.50;16.75;;;;;19.08;43.65;100755.41;146619;586;45021;-67
2024/02/09 06:52:01;;;;;;;;;20.50;15.50;;;;;19.41;42.96;100758.53;146611;566;46016;-67
2024/02/09 06:54:57;;;;;;;;;19.00;18.00;;;;;19.64;40.76;100757.19;146609;594;47012;-67
2024/02/09 06:57:50;;;;;;;;;30.00;28.25;;;;;19.56;40.57;100751.78;146608;618;48012;-68
2024/02/09 07:00:53;;;;;;;;;18.00;16.50;;;;;19.23;41.78;100764.41;146613;593;46012;-68
2024/02/09 07:03:52;;;;;;;;;25.00;21.25;;;;;19.09;41.76;100762.41;146611;588;46013;-67
2024/02/09 07:06:54;;;;;;;;;23.00;19.00;;;;;19.00;42.66;100777.13;146611;569;47010;-67
2024/02/09 07:09:53;;;;;;;;;25.25;24.00;;;;;18.96;41.32;100772.69;146609;606;47032;-68
2024/02/09 07:12:51;;;;;;;;;25.75;22.00;;;;;18.80;42.45;100776.78;146605;571;46020;-70
2024/02/09 07:15:56;;;;;;;;;27.75;23.75;;;;;18.56;41.88;100770.16;146609;638;46012;-67
2024/02/09 07:18:54;;;;;;;;;27.50;22.75;;;;;18.24;42.69;100762.53;146611;616;46010;-68
2024/02/09 07:21:55;;;;;;;;;21.50;21.25;;;;;17.94;42.08;100770.66;146606;601;47012;-68
2024/02/09 07:24:52;;;;;;;;;28.00;23.25;;;;;17.56;43.63;100764.50;146613;626;46021;-68
2024/02/09 07:27:46;;;;;;;;;34.00;29.50;;;;;17.28;44.85;100762.94;146606;575;47016;-69
2024/02/09 07:30:51;;;;;;;;;23.00;22.00;;;;;17.09;45.25;100758.97;146613;626;46020;-67
2024/02/09 07:33:56;;;;;;;;;24.00;20.25;;;;;16.84;45.59;100745.25;146609;610;47012;-68
2024/02/09 07:36:50;;;;;;;;;28.50;23.00;;;;;16.85;46.93;100765.38;146612;580;46020;-72
2024/02/09 07:39:48;;;;;;;;;27.25;24.50;;;;;16.89;45.50;100763.72;146610;602;46017;-67
2024/02/09 07:42:46;;;;;;;;;28.00;24.00;;;;;16.98;46.46;100769.19;146605;592;47010;-67
2024/02/09 07:45:53;;;;;;;;;37.50;31.75;;;;;17.06;45.72;100765.03;146608;580;46026;-69
2024/02/09 07:48:54;;;;;;;;;33.50;30.00;;;;;17.18;46.04;100771.44;146613;577;46020;-68
2024/02/09 07:51:48;;;;;;;;;30.75;29.00;;;;;17.30;45.67;100771.75;146609;625;46012;-70
2024/02/09 07:54:46;;;;;;;;;37.75;29.75;;;;;17.44;45.89;100765.06;146613;608;46012;-69
2024/02/09 07:57:43;;;;;;;;;32.25;28.50;;;;;17.65;45.54;100771.69;146610;602;47025;-70
2024/02/09 08:00:36;;;;;;;;;34.50;28.00;;;;;17.85;45.46;100772.16;146612;598;46021;-69
2024/02/09 08:03:57;;;;;;;;;34.25;29.00;;;;;18.07;44.50;100768.28;146611;600;46031;-69
2024/02/09 08:07:08;;;;;;;;;37.50;32.00;;;;;18.26;44.44;100765.22;146614;563;46031;-69
2024/02/09 08:10:08;;;;;;;;;40.50;33.25;;;;;18.40;44.03;100770.72;146609;626;46016;-70
2024/02/09 08:13:23;;;;;;;;;43.00;34.25;;;;;18.54;45.78;100769.28;146612;586;46010;-69
2024/02/09 08:16:17;;;;;;;;;43.25;35.00;;;;;17.94;44.36;100636.87;146608;608;47016;-68
2024/02/09 08:19:17;;;;;;;;;43.25;36.00;;;;;18.81;43.22;100765.41;146610;566;46020;-68
2024/02/09 08:22:10;;;;;;;;;45.50;36.00;;;;;18.81;44.12;100760.16;146608;606;47014;-68
2024/02/09 08:25:02;;;;;;;;;44.25;34.50;;;;;18.84;45.21;100761.09;146612;593;47020;-70
2024/02/09 08:27:55;;;;;;;;;43.50;34.50;;;;;18.96;44.47;100764.81;146608;571;46016;-69
2024/02/09 08:30:51;;;;;;;;;36.00;31.50;;;;;19.10;44.00;100753.69;146609;633;47010;-69
2024/02/09 08:33:59;;;;;;;;;;;;;;;;;;;;;
2024/02/09 08:37:05;;;;;;;;;33.50;29.50;;;;;19.35;43.23;100762.84;146611;578;47010;-69
2024/02/09 08:40:00;;;;;;;;;15.75;12.50;;;;;19.31;40.71;100766.28;146609;580;47016;-70
2024/02/09 08:42:53;;;;;;;;;13.50;12.50;;;;;19.22;42.15;100762.63;146613;599;46020;-70
2024/02/09 08:46:02;;;;;;;;;12.00;10.75;;;;;19.18;42.36;100760.81;146606;746;46917;-69
2024/02/09 08:49:03;;;;;;;;;11.50;10.50;;;;;19.15;41.68;100754.63;146611;590;47010;-70
2024/02/09 08:52:03;;;;;;;;;8.00;6.25;;;;;19.19;42.40;100750.34;146614;569;47016;-68
2024/02/09 08:54:55;;;;;;;;;6.75;5.00;;;;;19.24;40.43;100751.28;146624;620;47010;-70
2024/02/09 08:57:58;;;;;;;;;11.00;8.25;;;;;19.25;41.22;100752.16;146612;622;47012;-69
2024/02/09 09:00:55;;;;;;;;;12.00;8.75;;;;;19.34;43.21;100749.66;146620;570;47010;-68
2024/02/09 09:03:47;;;;;;;;;12.00;8.75;;;;;19.40;41.71;100752.41;146617;573;46016;-70
2024/02/09 09:06:42;;;;;;;;;8.50;8.25;;;;;19.44;41.14;100737.56;146621;738;46020;-69
2024/02/09 09:09:39;;;;;;;;;9.00;7.75;;;;;19.50;41.92;100743.81;146619;603;46016;-69
2024/02/09 09:12:31;;;;;;;;;4.00;4.00;;;;;19.58;39.83;100744.78;146618;566;46020;-69
2024/02/09 09:15:28;;;;;;;;;7.00;7.00;;;;;19.60;39.78;100744.84;146614;627;47017;-68
2024/02/09 09:18:29;;;;;;;;;9.75;8.75;;;;;19.66;40.34;100755.47;146619;569;46020;-70
2024/02/09 09:21:25;;;;;;;;;9.00;7.00;;;;;19.68;38.93;100748.47;146616;566;46034;-69
2024/02/09 09:24:17;;;;;;;;;8.75;8.00;;;;;19.73;40.33;100751.19;146623;630;46010;-68
2024/02/09 09:27:18;;;;;;;;;10.75;9.50;;;;;19.87;40.96;100748.72;146614;589;46912;-69
2024/02/09 09:30:20;;;;;;;;;7.50;7.00;;;;;19.99;39.38;100747.16;146611;739;46011;-70
2024/02/09 09:33:15;;;;;;;;;11.50;9.25;;;;;20.09;39.29;100740.25;146621;619;46012;-72
2024/02/09 09:36:18;;;;;;;;;6.00;6.00;;;;;20.15;38.65;100739.44;146620;578;46012;-68
2024/02/09 09:39:18;;;;;;;;;8.00;8.00;;;;;20.18;40.44;100739.50;146615;578;46919;-68
2024/02/09 09:42:23;;;;;;;;;10.25;7.50;;;;;20.22;38.68;100731.66;146615;683;47010;-68
2024/02/09 09:45:22;;;;;;;;;7.50;6.00;;;;;20.29;38.81;100735.25;146616;637;46017;-69
2024/02/09 09:48:18;;;;;;;;;7.50;7.00;;;;;20.33;38.33;100733.53;146623;647;46010;-69
2024/02/09 09:51:34;;;;;;;;;9.00;5.00;;;;;20.39;40.43;100731.84;146615;564;46016;-69
2024/02/09 09:54:34;;;;;;;;;9.00;7.00;;;;;20.46;39.06;100723.12;146619;684;48010;-69
2024/02/09 09:57:26;;;;;;;;;9.50;7.50;;;;;20.58;37.89;100713.66;146617;680;46016;-70
2024/02/09 10:00:24;;;;;;;;;8.75;8.50;;;;;20.66;37.73;100707.59;146618;599;47010;-70
2024/02/09 10:03:17;;;;;;;;;7.00;6.75;;;;;20.76;37.81;100700.66;146618;566;46016;-70
2024/02/09 10:06:15;;;;;;;;;7.00;7.00;;;;;20.86;37.86;100704.25;146620;619;47010;-71
2024/02/09 10:09:30;;;;;;;;;;;;;;;;;;;;;
2024/02/09 10:12:33;;;;;;;;;7.50;6.25;;;;;21.08;36.68;100700.91;146615;699;47010;-71
2024/02/09 10:15:26;;;;;;;;;6.50;5.75;;;;;21.19;36.87;100693.97;146615;557;46014;-69
2024/02/09 10:18:27;;;;;;;;;4.75;4.75;;;;;21.32;38.33;100686.16;146622;696;46010;-69
2024/02/09 10:21:21;;;;;;;;;9.75;6.00;;;;;21.41;36.27;100678.34;146617;582;47012;-70
2024/02/09 10:24:18;;;;;;;;;4.75;4.75;;;;;21.48;37.68;100680.13;146618;593;46020;-69
2024/02/09 10:27:16;;;;;;;;;7.25;6.25;;;;;21.59;37.19;100672.31;146614;569;47016;-68
2024/02/09 10:30:13;;;;;;;;;5.67;5.00;;;;;21.80;37.40;100663.56;146620;574;46021;-68
2024/02/09 10:33:06;;;;;;;;;6.00;6.00;;;;;22.01;35.43;100654.88;146616;641;46016;-70
2024/02/09 10:36:16;;;;;;;;;6.75;5.25;;;;;22.18;37.07;100647.94;146619;690;47010;-69
2024/02/09 10:39:14;;;;;;;;;6.50;5.50;;;;;22.36;35.35;100641.78;146612;590;46039;-70
2024/02/09 10:42:30;;;;;;;;;6.33;5.67;;;;;22.47;36.77;100642.69;146618;578;47010;-68
2024/02/09 10:45:24;;;;;;;;;5.00;5.00;;;;;22.50;33.92;100633.87;146616;625;47012;-69
2024/02/09 10:48:19;;;;;;;;;4.67;4.67;;;;;22.51;35.18;100640.94;146621;633;46010;-68
2024/02/09 10:51:16;;;;;;;;;8.33;6.33;;;;;22.53;36.24;100644.47;146617;569;46015;-69
2024/02/09 10:54:27;;;;;;;;;7.00;5.50;;;;;22.43;38.22;100637.37;146620;716;46020;-69
2024/02/09 10:57:24;;;;;;;;;6.25;6.25;;;;;22.39;37.06;100632.97;146611;619;47016;-69
2024/02/09 11:00:32;;;;;;;;;6.33;5.00;;;;;22.34;38.96;100623.31;146622;583;45021;-68
2024/02/09 11:03:30;;;;;;;;;7.75;6.00;;;;;22.28;40.38;100623.28;146616;564;46012;-70
2024/02/09 11:06:42;;;;;;;;;9.67;7.00;;;;;22.23;41.74;100621.50;146621;640;46011;-67
2024/02/09 11:09:43;;;;;;;;;8.00;5.67;;;;;22.20;40.31;100613.59;146618;616;47012;-69
2024/02/09 11:12:42;;;;;;;;;6.00;6.00;;;;;22.21;39.06;100615.34;146615;654;46020;-67
2024/02/09 11:15:39;;;;;;;;;7.00;5.00;;;;;22.21;39.91;100613.59;146618;630;46014;-69
2024/02/09 11:18:39;;;;;;;;;5.33;4.00;;;;;22.17;40.10;100616.22;146619;640;46020;-67
2024/02/09 11:21:41;;;;;;;;;4.00;4.00;;;;;22.16;38.77;100604.78;146619;645;46017;-70
2024/02/09 11:24:35;;;;;;;;;5.00;4.00;;;;;21.42;38.34;100479.62;146623;624;45047;-69
2024/02/09 11:27:36;;;;;;;;;10.75;10.25;;;;;22.30;39.78;100605.66;146612;564;46016;-70
2024/02/09 11:30:31;;;;;;;;;6.00;5.67;;;;;22.47;40.54;100608.34;146614;603;47010;-71
2024/02/09 11:33:28;;;;;;;;;5.00;4.50;;;;;22.65;39.27;100606.56;146614;666;46016;-70
2024/02/09 11:36:25;;;;;;;;;4.67;4.33;;;;;22.79;38.30;100594.25;146621;619;46032;-69
2024/02/09 11:39:29;;;;;;;;;6.00;6.00;;;;;22.73;36.80;100600.41;146618;579;46916;-70
2024/02/09 11:42:29;;;;;;;;;6.75;5.25;;;;;22.43;37.35;100587.19;146609;604;47010;-68
2024/02/09 11:45:24;;;;;;;;;5.33;5.33;;;;;21.96;38.69;100545.72;146613;639;47025;-68
2024/02/09 11:48:20;;;;;;;;;6.00;4.00;;;;;22.12;38.88;100576.56;146623;654;46010;-69
2024/02/09 11:51:12;;;;;;;;;6.00;6.00;;;;;22.11;38.56;100578.31;146618;671;46016;-69
2024/02/09 11:54:11;;;;;;;;;6.00;6.00;;;;;22.08;38.95;100575.66;146619;630;46020;-68
2024/02/09 11:57:18;;;;;;;;;7.33;6.67;;;;;21.97;36.59;100573.91;146617;609;46016;-69
2024/02/09 12:00:25;;;;;;;;;8.50;7.25;;;;;21.65;38.13;100570.28;146620;570;47010;-69
2024/02/09 12:03:21;;;;;;;;;6.50;6.00;;;;;21.32;36.76;100568.34;146619;640;46012;-70
2024/02/09 12:06:16;;;;;;;;;8.50;7.50;;;;;21.11;38.57;100570.88;146619;564;46021;-68
2024/02/09 12:09:15;;;;;;;;;7.00;6.25;;;;;20.99;38.37;100571.69;146617;580;46016;-69
2024/02/09 12:12:13;;;;;;;;;7.50;6.50;;;;;20.88;38.97;100563.72;146616;574;46010;-68
2024/02/09 12:15:14;;;;;;;;;7.75;5.25;;;;;20.79;37.72;100568.91;146615;579;46016;-70
2024/02/09 12:18:18;;;;;;;;;5.75;5.75;;;;;20.76;39.50;100563.63;146616;570;46921;-68
2024/02/09 12:21:32;;;;;;;;;7.00;6.00;;;;;20.79;39.53;100560.13;146618;635;47029;-69
2024/02/09 12:24:33;;;;;;;;;8.75;8.75;;;;;20.84;38.90;100561.03;146623;584;46020;-69
2024/02/09 12:27:29;;;;;;;;;7.50;7.00;;;;;20.96;38.58;100558.47;146619;605;46013;-68
2024/02/09 12:30:29;;;;;;;;;6.00;6.00;;;;;21.04;37.14;100561.19;146618;566;46020;-68
2024/02/09 12:33:30;;;;;;;;;6.00;6.00;;;;;21.08;38.07;100560.31;146615;659;46016;-69
2024/02/09 12:36:41;;;;;;;;;6.75;6.25;;;;;21.05;36.83;100557.66;146617;564;47010;-70
2024/02/09 12:39:36;;;;;;;;;9.00;9.00;;;;;20.92;37.25;100546.16;146613;575;47012;-69
2024/02/09 12:42:41;;;;;;;;;9.25;9.25;;;;;20.93;38.04;100543.56;146619;576;46020;-70
2024/02/09 12:45:52;;;;;;;;;5.50;5.50;;;;;21.03;36.87;100540.94;146617;588;46018;-70
2024/02/09 12:48:59;;;;;;;;;6.50;6.25;;;;;21.15;37.34;100538.37;146618;665;46021;-70
2024/02/09 12:51:55;;;;;;;;;11.25;10.25;;;;;21.13;35.54;100527.84;146617;628;46012;-69
2024/02/09 12:55:09;;;;;;;;;6.50;6.50;;;;;19.22;36.03;100218.50;146617;664;46010;-71
2024/02/09 12:58:09;;;;;;;;;8.00;7.00;;;;;21.01;36.80;100527.75;146612;622;47016;-70
2024/02/09 13:01:06;;;;;;;;;9.75;8.75;;;;;21.04;36.60;100529.53;146620;680;46010;-69
2024/02/09 13:04:10;;;;;;;;;8.00;8.00;;;;;21.07;35.96;100525.16;146618;587;45017;-70
2024/02/09 13:07:06;;;;;;;;;10.00;9.00;;;;;21.10;36.28;100522.53;146622;665;46010;-71
2024/02/09 13:10:16;;;;;;;;;12.75;9.75;;;;;19.46;37.34;100233.59;146616;666;47012;-70
2024/02/09 13:13:13;;;;;;;;;6.50;5.50;;;;;21.19;35.85;100524.34;146615;574;46021;-68
2024/02/09 13:16:21;;;;;;;;;9.00;7.50;;;;;21.22;37.37;100521.72;146612;696;47016;-71
2024/02/09 13:19:20;;;;;;;;;9.25;8.00;;;;;21.33;37.58;100522.63;146620;569;46031;-70
2024/02/09 13:22:13;;;;;;;;;7.25;6.50;;;;;21.51;38.06;100527.12;146610;614;47014;-69
2024/02/09 13:25:05;;;;;;;;;8.50;6.00;;;;;21.71;36.88;100526.31;146619;580;47010;-69
2024/02/09 13:28:01;;;;;;;;;7.75;7.25;;;;;21.72;36.39;100525.47;146615;624;47014;-69
2024/02/09 13:30:54;;;;;;;;;6.75;5.00;;;;;21.71;35.51;100524.53;146619;591;46020;-69
2024/02/09 13:33:50;;;;;;;;;5.50;5.50;;;;;21.62;36.32;100528.06;146618;639;46012;-71
2024/02/09 13:36:45;;;;;;;;;7.50;7.50;;;;;21.65;37.12;100533.34;146618;588;46020;-70
2024/02/09 13:39:51;;;;;;;;;8.25;7.00;;;;;21.86;37.27;100540.41;146611;574;47010;-71
2024/02/09 13:42:59;;;;;;;;;11.00;9.00;;;;;22.04;36.28;100538.72;146616;574;46010;-70
2024/02/09 13:46:01;;;;;;;;;6.50;5.50;;;;;22.00;34.40;100523.75;146602;682;47916;-71
2024/02/09 13:48:58;;;;;;;;;6.00;4.00;;;;;21.85;34.57;100520.19;146625;633;46011;-70
2024/02/09 13:51:52;;;;;;;;;5.00;5.00;;;;;21.81;33.71;100526.34;146616;598;47012;-69
2024/02/09 13:55:05;;;;;;;;;4.00;4.00;;;;;21.68;33.72;100521.91;146623;592;46010;-69
2024/02/09 13:57:58;;;;;;;;;4.33;4.00;;;;;21.58;33.77;100521.00;146617;570;48021;-69
2024/02/09 14:00:54;;;;;;;;;5.33;4.33;;;;;21.57;34.11;100521.00;146622;593;46020;-69
2024/02/09 14:03:51;;;;;;;;;6.00;4.00;;;;;21.65;34.70;100516.62;146615;634;46017;-69
2024/02/09 14:06:46;;;;;;;;;3.33;3.33;;;;;21.82;34.40;100529.88;146623;591;46010;-70
2024/02/09 14:09:40;;;;;;;;;5.33;4.00;;;;;21.90;33.71;100521.09;146618;599;47012;-70
2024/02/09 14:12:39;;;;;;;;;4.33;2.00;;;;;21.95;34.54;100531.66;146615;625;47010;-71
2024/02/09 14:15:47;;;;;;;;;3.00;3.00;;;;;21.89;35.29;100518.44;146615;565;46030;-70
2024/02/09 14:18:46;;;;;;;;;2.67;2.67;;;;;21.86;33.70;100515.78;146622;584;47011;-69
2024/02/09 14:21:46;;;;;;;;;2.00;2.00;;;;;21.73;33.84;100521.94;146615;630;46016;-69
2024/02/09 14:24:46;;;;;;;;;6.00;4.75;;;;;21.52;34.65;100517.47;146619;625;47013;-68
2024/02/09 14:27:50;;;;;;;;;4.00;4.00;;;;;21.27;34.12;100516.47;146613;619;46016;-69
2024/02/09 14:30:44;;;;;;;;;5.75;5.75;;;;;20.95;32.93;100522.47;146614;657;46020;-69
2024/02/09 14:33:48;;;;;;;;;5.67;3.67;;;;;20.63;34.44;100517.00;146615;578;46024;-70
2024/02/09 14:36:44;;;;;;;;;5.75;4.25;;;;;20.41;35.07;100521.19;146618;575;46032;-70
2024/02/09 14:40:00;;;;;;;;;5.50;4.00;;;;;20.25;35.96;100520.19;146616;653;46915;-70
2024/02/09 14:42:55;;;;;;;;;6.00;6.00;;;;;20.20;35.46;100516.62;146615;614;46010;-71
2024/02/09 14:45:38;;;;;;;;;8.00;7.00;;;;;20.12;35.36;100521.81;146707;584;46022;-69
2024/02/09 14:48:42;;;;;;;;;8.25;7.00;;;;;20.10;36.53;100515.66;146625;703;46027;-69
2024/02/09 14:51:43;;;;;;;;;9.00;7.33;;;;;20.05;36.88;100514.72;146627;642;46020;-69
2024/02/09 14:54:40;;;;;;;;;9.00;8.00;;;;;20.04;37.28;100516.47;146621;705;47012;-70
2024/02/09 14:57:39;;;;;;;;;7.75;7.75;;;;;20.01;36.85;100515.56;146626;644;47010;-69
2024/02/09 15:00:34;;;;;;;;;8.75;7.75;;;;;19.93;36.17;100511.97;146625;569;46012;-68
2024/02/09 15:03:37;;;;;;;;;7.50;7.00;;;;;19.78;37.76;100513.59;146628;673;46013;-70
2024/02/09 15:06:36;;;;;;;;;11.75;8.00;;;;;19.60;37.81;100497.59;146617;598;46016;-69
2024/02/09 15:09:33;;;;;;;;;8.25;7.75;;;;;19.39;37.94;100496.47;146624;625;46020;-71
2024/02/09 15:12:34;;;;;;;;;10.00;9.00;;;;;19.20;38.51;100496.25;146622;583;46016;-69
2024/02/09 15:15:30;;;;;;;;;11.00;11.00;;;;;19.04;39.03;100485.53;146625;588;46020;-69
2024/02/09 15:18:25;;;;;;;;;12.50;12.25;;;;;18.92;39.38;100486.25;146615;644;47023;-71
2024/02/09 15:21:22;;;;;;;;;10.00;9.00;;;;;18.82;39.73;100488.75;146620;621;47010;-69
2024/02/09 15:24:26;;;;;;;;;12.00;9.75;;;;;18.72;40.39;100492.94;146621;569;46016;-69
2024/02/09 15:27:24;;;;;;;;;18.00;15.75;;;;;18.66;40.16;100485.88;146627;573;46021;-69
2024/02/09 15:30:26;;;;;;;;;15.25;12.50;;;;;18.64;40.56;100478.81;146612;563;47012;-68
2024/02/09 15:33:21;;;;;;;;;15.25;13.75;;;;;18.62;40.62;100480.53;146619;684;46020;-68
2024/02/09 15:36:17;;;;;;;;;20.50;15.50;;;;;18.62;41.21;100491.91;146617;564;46915;-68
2024/02/09 15:39:18;;;;;;;;;22.00;18.00;;;;;18.62;41.00;100486.66;146620;604;47021;-69
2024/02/09 15:42:20;;;;;;;;;16.50;14.75;;;;;18.62;41.03;100496.28;146618;615;46916;-69